sensor_id;sensor_type;location;lat;lon;timestamp;pressure;altitude;pressure_sealevel;temperature;humidity
69127;BME280;56688;50.234;19.292;2023-03-12T00:00:12;97871.39;;;-1.13;74.25
69127;BME280;56688;50.234;19.292;2023-03-12T00:02:39;97876.55;;;-1.12;74.46
69127;BME280;56688;50.234;19.292;2023-03-12T00:05:07;97877.64;;;-1.10;74.81
69127;BME280;56688;50.234;19.292;2023-03-12T00:07:33;97887.09;;;-1.09;74.81
69127;BME280;56688;50.234;19.292;2023-03-12T00:10:04;97891.00;;;-1.07;74.61
69127;BME280;56688;50.234;19.292;2023-03-12T00:12:31;97893.90;;;-1.04;74.69
69127;BME280;56688;50.234;19.292;2023-03-12T00:14:58;97894.16;;;-1.01;74.84
69127;BME280;56688;50.234;19.292;2023-03-12T00:17:25;97894.86;;;-0.99;74.85
69127;BME280;56688;50.234;19.292;2023-03-12T00:19:52;97897.19;;;-0.98;74.75
69127;BME280;56688;50.234;19.292;2023-03-12T00:22:19;97895.64;;;-0.98;74.23
69127;BME280;56688;50.234;19.292;2023-03-12T00:24:50;97898.65;;;-0.97;74.14
69127;BME280;56688;50.234;19.292;2023-03-12T00:27:18;97893.51;;;-0.94;73.65
69127;BME280;56688;50.234;19.292;2023-03-12T00:29:45;97897.51;;;-0.90;73.40
69127;BME280;56688;50.234;19.292;2023-03-12T00:32:12;97893.02;;;-0.88;73.11
69127;BME280;56688;50.234;19.292;2023-03-12T00:34:39;97898.39;;;-0.88;72.72
69127;BME280;56688;50.234;19.292;2023-03-12T00:37:07;97904.90;;;-0.88;72.79
69127;BME280;56688;50.234;19.292;2023-03-12T00:39:34;97902.52;;;-0.91;72.92
69127;BME280;56688;50.234;19.292;2023-03-12T00:42:01;97903.23;;;-0.91;72.70
69127;BME280;56688;50.234;19.292;2023-03-12T00:44:28;97905.58;;;-0.94;72.77
69127;BME280;56688;50.234;19.292;2023-03-12T00:46:55;97907.20;;;-0.97;73.20
69127;BME280;56688;50.234;19.292;2023-03-12T00:49:21;97909.70;;;-0.97;73.79
69127;BME280;56688;50.234;19.292;2023-03-12T00:51:48;97907.63;;;-0.95;73.69
69127;BME280;56688;50.234;19.292;2023-03-12T00:54:15;97905.39;;;-0.96;73.55
69127;BME280;56688;50.234;19.292;2023-03-12T00:56:42;97907.41;;;-0.95;73.56
69127;BME280;56688;50.234;19.292;2023-03-12T00:59:09;97910.86;;;-0.94;73.65
69127;BME280;56688;50.234;19.292;2023-03-12T01:01:36;97916.10;;;-0.94;73.61
69127;BME280;56688;50.234;19.292;2023-03-12T01:04:02;97917.15;;;-0.92;73.65
69127;BME280;56688;50.234;19.292;2023-03-12T01:06:30;97916.07;;;-0.92;73.81
69127;BME280;56688;50.234;19.292;2023-03-12T01:08:57;97920.11;;;-0.92;74.14
69127;BME280;56688;50.234;19.292;2023-03-12T01:11:24;97920.11;;;-0.90;74.08
69127;BME280;56688;50.234;19.292;2023-03-12T01:13:51;97917.46;;;-0.86;74.14
69127;BME280;56688;50.234;19.292;2023-03-12T01:16:17;97913.66;;;-0.80;74.36
69127;BME280;56688;50.234;19.292;2023-03-12T01:18:44;97914.52;;;-0.74;74.23
69127;BME280;56688;50.234;19.292;2023-03-12T01:21:11;97913.97;;;-0.72;73.69
69127;BME280;56688;50.234;19.292;2023-03-12T01:23:38;97915.00;;;-0.69;73.30
69127;BME280;56688;50.234;19.292;2023-03-12T01:26:05;97913.86;;;-0.68;73.22
69127;BME280;56688;50.234;19.292;2023-03-12T01:28:32;97906.23;;;-0.67;72.87
69127;BME280;56688;50.234;19.292;2023-03-12T01:31:10;97900.90;;;-0.70;72.04
69127;BME280;56688;50.234;19.292;2023-03-12T01:33:38;97899.34;;;-0.74;71.96
69127;BME280;56688;50.234;19.292;2023-03-12T01:36:16;97902.67;;;-0.74;71.96
69127;BME280;56688;50.234;19.292;2023-03-12T01:38:44;97905.02;;;-0.71;72.33
69127;BME280;56688;50.234;19.292;2023-03-12T01:41:11;97909.65;;;-0.68;72.62
69127;BME280;56688;50.234;19.292;2023-03-12T01:43:38;97910.49;;;-0.64;72.75
69127;BME280;56688;50.234;19.292;2023-03-12T01:49:25;97915.21;;;-0.66;72.36
69127;BME280;56688;50.234;19.292;2023-03-12T01:52:10;97916.67;;;-0.68;72.50
69127;BME280;56688;50.234;19.292;2023-03-12T01:54:49;97916.85;;;-0.71;72.96
69127;BME280;56688;50.234;19.292;2023-03-12T01:57:22;97920.77;;;-0.71;72.70
69127;BME280;56688;50.234;19.292;2023-03-12T01:59:56;97921.77;;;-0.71;72.83
69127;BME280;56688;50.234;19.292;2023-03-12T02:02:25;97929.16;;;-0.71;72.80
69127;BME280;56688;50.234;19.292;2023-03-12T02:05:06;97928.63;;;-0.69;73.06
69127;BME280;56688;50.234;19.292;2023-03-12T02:07:34;97931.76;;;-0.67;73.01
69127;BME280;56688;50.234;19.292;2023-03-12T02:10:03;97937.23;;;-0.70;72.99
69127;BME280;56688;50.234;19.292;2023-03-12T02:12:30;97938.23;;;-0.73;73.05
69127;BME280;56688;50.234;19.292;2023-03-12T02:14:58;97945.71;;;-0.77;73.01
69127;BME280;56688;50.234;19.292;2023-03-12T02:17:25;97945.91;;;-0.81;72.93
69127;BME280;56688;50.234;19.292;2023-03-12T02:22:21;97951.00;;;-0.89;73.18
69127;BME280;56688;50.234;19.292;2023-03-12T02:24:55;97945.73;;;-0.91;73.34
69127;BME280;56688;50.234;19.292;2023-03-12T02:27:23;97950.55;;;-0.89;73.40
69127;BME280;56688;50.234;19.292;2023-03-12T02:29:50;97953.48;;;-0.86;73.46
69127;BME280;56688;50.234;19.292;2023-03-12T02:32:24;97955.39;;;-0.88;73.17
69127;BME280;56688;50.234;19.292;2023-03-12T02:34:52;97954.70;;;-0.92;73.05
69127;BME280;56688;50.234;19.292;2023-03-12T02:37:19;97956.66;;;-0.98;73.04
69127;BME280;56688;50.234;19.292;2023-03-12T02:39:53;97961.73;;;-1.13;73.44
69127;BME280;56688;50.234;19.292;2023-03-12T02:42:23;97961.69;;;-1.23;73.57
69127;BME280;56688;50.234;19.292;2023-03-12T02:44:51;97967.25;;;-1.29;73.93
69127;BME280;56688;50.234;19.292;2023-03-12T02:47:18;97969.66;;;-1.33;74.17
69127;BME280;56688;50.234;19.292;2023-03-12T02:49:44;97974.52;;;-1.36;74.25
69127;BME280;56688;50.234;19.292;2023-03-12T02:52:12;97978.30;;;-1.42;74.29
69127;BME280;56688;50.234;19.292;2023-03-12T02:54:38;97984.92;;;-1.46;74.37
69127;BME280;56688;50.234;19.292;2023-03-12T02:57:05;97983.36;;;-1.53;74.42
69127;BME280;56688;50.234;19.292;2023-03-12T02:59:33;97985.48;;;-1.59;74.87
69127;BME280;56688;50.234;19.292;2023-03-12T03:02:00;97987.27;;;-1.62;75.15
69127;BME280;56688;50.234;19.292;2023-03-12T03:04:29;97989.73;;;-1.62;75.40
69127;BME280;56688;50.234;19.292;2023-03-12T03:06:56;97990.27;;;-1.63;75.45
69127;BME280;56688;50.234;19.292;2023-03-12T03:09:23;97992.06;;;-1.63;75.54
69127;BME280;56688;50.234;19.292;2023-03-12T03:11:51;97997.76;;;-1.64;75.55
69127;BME280;56688;50.234;19.292;2023-03-12T03:14:18;98002.13;;;-1.66;75.51
69127;BME280;56688;50.234;19.292;2023-03-12T03:16:47;98005.11;;;-1.71;75.59
69127;BME280;56688;50.234;19.292;2023-03-12T03:19:13;98008.70;;;-1.74;75.71
69127;BME280;56688;50.234;19.292;2023-03-12T03:21:40;98010.02;;;-1.76;75.80
69127;BME280;56688;50.234;19.292;2023-03-12T03:24:07;98012.27;;;-1.76;75.84
69127;BME280;56688;50.234;19.292;2023-03-12T03:26:34;98019.70;;;-1.75;75.84
69127;BME280;56688;50.234;19.292;2023-03-12T03:29:01;98023.68;;;-1.74;75.84
69127;BME280;56688;50.234;19.292;2023-03-12T03:31:28;98025.70;;;-1.77;76.02
69127;BME280;56688;50.234;19.292;2023-03-12T03:33:56;98031.23;;;-1.81;76.01
69127;BME280;56688;50.234;19.292;2023-03-12T03:36:22;98035.21;;;-1.87;76.25
69127;BME280;56688;50.234;19.292;2023-03-12T03:38:58;98037.73;;;-1.92;76.39
69127;BME280;56688;50.234;19.292;2023-03-12T03:41:25;98036.48;;;-1.97;76.63
69127;BME280;56688;50.234;19.292;2023-03-12T03:43:56;98041.71;;;-1.99;76.57
69127;BME280;56688;50.234;19.292;2023-03-12T03:46:24;98039.80;;;-2.01;76.75
69127;BME280;56688;50.234;19.292;2023-03-12T03:48:57;98048.93;;;-2.04;76.76
69127;BME280;56688;50.234;19.292;2023-03-12T03:51:25;98050.95;;;-2.07;76.88
69127;BME280;56688;50.234;19.292;2023-03-12T03:53:54;98050.48;;;-2.12;76.92
69127;BME280;56688;50.234;19.292;2023-03-12T03:56:21;98058.20;;;-2.17;76.98
69127;BME280;56688;50.234;19.292;2023-03-12T03:58:48;98058.86;;;-2.21;77.11
69127;BME280;56688;50.234;19.292;2023-03-12T04:01:16;98061.95;;;-2.23;77.21
69127;BME280;56688;50.234;19.292;2023-03-12T04:03:44;98058.52;;;-2.24;77.20
69127;BME280;56688;50.234;19.292;2023-03-12T04:06:11;98059.57;;;-2.26;77.29
69127;BME280;56688;50.234;19.292;2023-03-12T04:08:39;98062.67;;;-2.28;77.18
69127;BME280;56688;50.234;19.292;2023-03-12T04:11:12;98060.13;;;-2.31;77.05
69127;BME280;56688;50.234;19.292;2023-03-12T04:13:40;98060.85;;;-2.36;77.12
69127;BME280;56688;50.234;19.292;2023-03-12T04:16:08;98058.51;;;-2.42;77.18
69127;BME280;56688;50.234;19.292;2023-03-12T04:18:36;98059.66;;;-2.45;77.07
69127;BME280;56688;50.234;19.292;2023-03-12T04:21:05;98058.53;;;-2.49;77.14
69127;BME280;56688;50.234;19.292;2023-03-12T04:23:33;98057.61;;;-2.50;77.27
69127;BME280;56688;50.234;19.292;2023-03-12T04:26:00;98058.02;;;-2.51;77.36
69127;BME280;56688;50.234;19.292;2023-03-12T04:28:27;98062.27;;;-2.49;77.23
69127;BME280;56688;50.234;19.292;2023-03-12T04:30:59;98062.08;;;-2.49;77.25
69127;BME280;56688;50.234;19.292;2023-03-12T04:33:38;98062.05;;;-2.49;77.17
69127;BME280;56688;50.234;19.292;2023-03-12T04:36:06;98067.05;;;-2.51;76.78
69127;BME280;56688;50.234;19.292;2023-03-12T04:38:34;98066.04;;;-2.54;76.84
69127;BME280;56688;50.234;19.292;2023-03-12T04:41:06;98071.64;;;-2.56;76.77
69127;BME280;56688;50.234;19.292;2023-03-12T04:43:35;98071.67;;;-2.57;76.89
69127;BME280;56688;50.234;19.292;2023-03-12T04:46:03;98070.70;;;-2.56;76.90
69127;BME280;56688;50.234;19.292;2023-03-12T04:48:32;98068.69;;;-2.52;76.68
69127;BME280;56688;50.234;19.292;2023-03-12T04:51:01;98070.46;;;-2.47;76.67
69127;BME280;56688;50.234;19.292;2023-03-12T04:53:28;98077.52;;;-2.44;76.42
69127;BME280;56688;50.234;19.292;2023-03-12T04:55:56;98076.77;;;-2.43;76.12
69127;BME280;56688;50.234;19.292;2023-03-12T04:58:23;98081.81;;;-2.43;75.97
69127;BME280;56688;50.234;19.292;2023-03-12T05:00:50;98087.09;;;-2.43;75.80
69127;BME280;56688;50.234;19.292;2023-03-12T05:03:17;98089.63;;;-2.45;75.87
69127;BME280;56688;50.234;19.292;2023-03-12T05:05:44;98087.25;;;-2.48;75.77
69127;BME280;56688;50.234;19.292;2023-03-12T05:08:12;98088.40;;;-2.49;75.78
69127;BME280;56688;50.234;19.292;2023-03-12T05:10:40;98087.47;;;-2.49;75.64
69127;BME280;56688;50.234;19.292;2023-03-12T05:13:21;98096.02;;;-2.47;75.63
69127;BME280;56688;50.234;19.292;2023-03-12T05:15:50;98094.06;;;-2.44;75.51
69127;BME280;56688;50.234;19.292;2023-03-12T05:18:18;98096.14;;;-2.41;75.27
69127;BME280;56688;50.234;19.292;2023-03-12T05:20:58;98098.68;;;-2.40;74.98
69127;BME280;56688;50.234;19.292;2023-03-12T05:23:25;98106.09;;;-2.39;74.95
69127;BME280;56688;50.234;19.292;2023-03-12T05:25:52;98108.16;;;-2.39;74.91
69127;BME280;56688;50.234;19.292;2023-03-12T05:28:19;98108.52;;;-2.39;74.91
69127;BME280;56688;50.234;19.292;2023-03-12T05:30:47;98111.15;;;-2.37;74.96
69127;BME280;56688;50.234;19.292;2023-03-12T05:33:14;98115.20;;;-2.31;75.06
69127;BME280;56688;50.234;19.292;2023-03-12T05:35:41;98119.57;;;-2.22;75.08
69127;BME280;56688;50.234;19.292;2023-03-12T05:38:08;98119.65;;;-2.14;75.04
69127;BME280;56688;50.234;19.292;2023-03-12T05:40:34;98117.74;;;-2.07;74.90
69127;BME280;56688;50.234;19.292;2023-03-12T05:43:02;98124.47;;;-2.02;74.72
69127;BME280;56688;50.234;19.292;2023-03-12T05:45:29;98125.91;;;-1.97;74.77
69127;BME280;56688;50.234;19.292;2023-03-12T05:47:57;98123.88;;;-1.94;74.72
69127;BME280;56688;50.234;19.292;2023-03-12T05:50:26;98126.44;;;-1.91;74.47
69127;BME280;56688;50.234;19.292;2023-03-12T05:52:53;98129.58;;;-1.86;74.35
69127;BME280;56688;50.234;19.292;2023-03-12T05:55:20;98126.73;;;-1.79;74.04
69127;BME280;56688;50.234;19.292;2023-03-12T05:57:47;98129.45;;;-1.74;73.79
69127;BME280;56688;50.234;19.292;2023-03-12T06:00:15;98124.48;;;-1.68;73.55
69127;BME280;56688;50.234;19.292;2023-03-12T06:02:47;98131.08;;;-1.63;73.04
69127;BME280;56688;50.234;19.292;2023-03-12T06:05:14;98133.63;;;-1.60;73.16
69127;BME280;56688;50.234;19.292;2023-03-12T06:07:41;98136.23;;;-1.53;73.29
69127;BME280;56688;50.234;19.292;2023-03-12T06:10:08;98139.98;;;-1.46;72.91
69127;BME280;56688;50.234;19.292;2023-03-12T06:12:35;98137.65;;;-1.38;72.60
69127;BME280;56688;50.234;19.292;2023-03-12T06:15:03;98138.70;;;-1.29;72.50
69127;BME280;56688;50.234;19.292;2023-03-12T06:17:31;98145.61;;;-1.22;72.17
69127;BME280;56688;50.234;19.292;2023-03-12T06:19:58;98150.00;;;-1.16;72.04
69127;BME280;56688;50.234;19.292;2023-03-12T06:22:25;98150.31;;;-1.09;71.75
69127;BME280;56688;50.234;19.292;2023-03-12T06:24:53;98148.60;;;-1.03;71.38
69127;BME280;56688;50.234;19.292;2023-03-12T06:27:22;98151.24;;;-0.99;71.01
69127;BME280;56688;50.234;19.292;2023-03-12T06:29:49;98157.56;;;-0.93;70.70
69127;BME280;56688;50.234;19.292;2023-03-12T06:32:17;98162.35;;;-0.85;70.48
69127;BME280;56688;50.234;19.292;2023-03-12T06:34:44;98162.55;;;-0.76;69.98
69127;BME280;56688;50.234;19.292;2023-03-12T06:37:11;98165.03;;;-0.71;69.54
69127;BME280;56688;50.234;19.292;2023-03-12T06:39:37;98167.70;;;-0.65;69.19
69127;BME280;56688;50.234;19.292;2023-03-12T06:42:04;98169.55;;;-0.62;69.03
69127;BME280;56688;50.234;19.292;2023-03-12T06:44:31;98169.80;;;-0.59;68.94
69127;BME280;56688;50.234;19.292;2023-03-12T06:46:58;98174.92;;;-0.55;68.10
69127;BME280;56688;50.234;19.292;2023-03-12T06:49:25;98176.84;;;-0.52;67.96
69127;BME280;56688;50.234;19.292;2023-03-12T06:51:52;98176.35;;;-0.47;67.83
69127;BME280;56688;50.234;19.292;2023-03-12T06:54:21;98180.80;;;-0.35;68.00
69127;BME280;56688;50.234;19.292;2023-03-12T06:56:48;98181.31;;;-0.20;66.84
69127;BME280;56688;50.234;19.292;2023-03-12T06:59:15;98182.56;;;-0.06;66.62
69127;BME280;56688;50.234;19.292;2023-03-12T07:01:42;98180.20;;;0.12;65.84
69127;BME280;56688;50.234;19.292;2023-03-12T07:04:08;98178.30;;;0.25;65.56
69127;BME280;56688;50.234;19.292;2023-03-12T07:06:35;98183.08;;;0.41;65.50
69127;BME280;56688;50.234;19.292;2023-03-12T07:09:02;98179.70;;;0.46;64.45
69127;BME280;56688;50.234;19.292;2023-03-12T07:11:30;98176.94;;;0.47;64.22
69127;BME280;56688;50.234;19.292;2023-03-12T07:13:57;98180.73;;;0.54;64.06
69127;BME280;56688;50.234;19.292;2023-03-12T07:16:24;98181.88;;;0.61;63.68
69127;BME280;56688;50.234;19.292;2023-03-12T07:18:51;98179.98;;;0.65;63.55
69127;BME280;56688;50.234;19.292;2023-03-12T07:21:17;98185.99;;;0.70;63.07
69127;BME280;56688;50.234;19.292;2023-03-12T07:23:49;98179.39;;;0.85;62.71
69127;BME280;56688;50.234;19.292;2023-03-12T07:26:17;98171.09;;;1.43;62.33
69127;BME280;56688;50.234;19.292;2023-03-12T07:28:44;98175.86;;;2.17;60.48
69127;BME280;56688;50.234;19.292;2023-03-12T07:31:11;98175.15;;;2.87;57.83
69127;BME280;56688;50.234;19.292;2023-03-12T07:33:38;98173.78;;;3.05;56.78
69127;BME280;56688;50.234;19.292;2023-03-12T07:36:05;98177.56;;;2.97;56.75
69127;BME280;56688;50.234;19.292;2023-03-12T07:38:33;98180.10;;;2.85;56.17
69127;BME280;56688;50.234;19.292;2023-03-12T07:40:59;98181.81;;;2.65;56.11
69127;BME280;56688;50.234;19.292;2023-03-12T07:43:26;98184.84;;;2.46;56.95
69127;BME280;56688;50.234;19.292;2023-03-12T07:45:53;98188.64;;;2.40;56.48
69127;BME280;56688;50.234;19.292;2023-03-12T07:48:20;98190.17;;;2.64;56.35
69127;BME280;56688;50.234;19.292;2023-03-12T07:50:47;98187.55;;;3.28;56.08
69127;BME280;56688;50.234;19.292;2023-03-12T07:53:15;98180.10;;;3.71;53.93
69127;BME280;56688;50.234;19.292;2023-03-12T07:55:44;98182.05;;;3.97;53.21
69127;BME280;56688;50.234;19.292;2023-03-12T07:58:13;98175.20;;;4.51;51.82
69127;BME280;56688;50.234;19.292;2023-03-12T08:00:41;98174.99;;;5.10;50.93
69127;BME280;56688;50.234;19.292;2023-03-12T08:03:08;98172.98;;;5.69;49.18
69127;BME280;56688;50.234;19.292;2023-03-12T08:05:35;98170.57;;;6.20;48.64
69127;BME280;56688;50.234;19.292;2023-03-12T08:08:02;98174.70;;;6.73;47.15
69127;BME280;56688;50.234;19.292;2023-03-12T08:10:29;98167.37;;;7.12;45.18
69127;BME280;56688;50.234;19.292;2023-03-12T08:12:56;98163.44;;;7.40;45.01
69127;BME280;56688;50.234;19.292;2023-03-12T08:15:23;98165.61;;;7.68;44.49
69127;BME280;56688;50.234;19.292;2023-03-12T08:17:50;98171.77;;;7.85;44.16
69127;BME280;56688;50.234;19.292;2023-03-12T08:20:17;98175.38;;;8.20;43.80
69127;BME280;56688;50.234;19.292;2023-03-12T08:22:44;98174.80;;;8.59;42.15
69127;BME280;56688;50.234;19.292;2023-03-12T08:25:11;98178.65;;;8.89;41.48
69127;BME280;56688;50.234;19.292;2023-03-12T08:27:38;98185.94;;;8.89;40.69
69127;BME280;56688;50.234;19.292;2023-03-12T08:30:06;98190.15;;;9.05;41.15
69127;BME280;56688;50.234;19.292;2023-03-12T08:32:33;98190.38;;;9.34;39.62
69127;BME280;56688;50.234;19.292;2023-03-12T08:35:01;98195.79;;;9.36;38.96
69127;BME280;56688;50.234;19.292;2023-03-12T08:37:30;98195.16;;;9.47;38.82
69127;BME280;56688;50.234;19.292;2023-03-12T08:39:58;98197.06;;;9.56;39.32
69127;BME280;56688;50.234;19.292;2023-03-12T08:42:25;98192.61;;;9.73;38.48
69127;BME280;56688;50.234;19.292;2023-03-12T08:44:52;98195.98;;;9.78;38.00
69127;BME280;56688;50.234;19.292;2023-03-12T08:47:19;98191.77;;;9.73;37.95
69127;BME280;56688;50.234;19.292;2023-03-12T08:49:46;98195.28;;;9.70;38.32
69127;BME280;56688;50.234;19.292;2023-03-12T08:52:13;98194.59;;;9.70;37.85
69127;BME280;56688;50.234;19.292;2023-03-12T08:54:40;98190.67;;;9.77;38.10
69127;BME280;56688;50.234;19.292;2023-03-12T08:57:06;98188.80;;;9.97;38.40
69127;BME280;56688;50.234;19.292;2023-03-12T08:59:33;98188.55;;;9.97;37.98
69127;BME280;56688;50.234;19.292;2023-03-12T09:02:00;98192.30;;;9.89;37.55
69127;BME280;56688;50.234;19.292;2023-03-12T09:04:27;98198.64;;;9.58;37.84
69127;BME280;56688;50.234;19.292;2023-03-12T09:06:54;98201.23;;;9.32;38.44
69127;BME280;56688;50.234;19.292;2023-03-12T09:09:21;98203.02;;;9.20;38.34
69127;BME280;56688;50.234;19.292;2023-03-12T09:11:48;98205.11;;;9.34;38.24
69127;BME280;56688;50.234;19.292;2023-03-12T09:14:14;98202.09;;;9.50;38.19
69127;BME280;56688;50.234;19.292;2023-03-12T09:17:01;98207.55;;;9.40;38.11
69127;BME280;56688;50.234;19.292;2023-03-12T09:19:28;98213.80;;;9.17;38.43
69127;BME280;56688;50.234;19.292;2023-03-12T09:21:55;98212.16;;;8.95;39.56
69127;BME280;56688;50.234;19.292;2023-03-12T09:24:23;98212.14;;;8.88;40.15
69127;BME280;56688;50.234;19.292;2023-03-12T09:26:50;98208.66;;;9.03;39.28
69127;BME280;56688;50.234;19.292;2023-03-12T09:29:16;98210.86;;;9.21;38.74
69127;BME280;56688;50.234;19.292;2023-03-12T09:31:43;98202.83;;;9.25;38.85
69127;BME280;56688;50.234;19.292;2023-03-12T09:34:10;98207.64;;;9.19;39.36
69127;BME280;56688;50.234;19.292;2023-03-12T09:36:37;98207.39;;;9.12;40.09
69127;BME280;56688;50.234;19.292;2023-03-12T09:39:04;98203.70;;;9.09;39.09
69127;BME280;56688;50.234;19.292;2023-03-12T09:41:35;98204.70;;;8.92;39.22
69127;BME280;56688;50.234;19.292;2023-03-12T09:46:40;98203.55;;;8.59;40.82
69127;BME280;56688;50.234;19.292;2023-03-12T09:49:17;98197.05;;;8.47;39.78
69127;BME280;56688;50.234;19.292;2023-03-12T09:51:47;98196.67;;;8.18;41.20
69127;BME280;56688;50.234;19.292;2023-03-12T09:54:37;98199.52;;;8.04;42.16
69127;BME280;56688;50.234;19.292;2023-03-12T09:57:11;98189.88;;;7.76;41.60
69127;BME280;56688;50.234;19.292;2023-03-12T09:59:38;98194.55;;;7.57;42.48
69127;BME280;56688;50.234;19.292;2023-03-12T10:02:24;98193.26;;;7.44;43.06
69127;BME280;56688;50.234;19.292;2023-03-12T10:04:57;98191.56;;;7.49;43.85
69127;BME280;56688;50.234;19.292;2023-03-12T10:15:34;98196.92;;;6.58;44.70
69127;BME280;56688;50.234;19.292;2023-03-12T10:23:28;98193.32;;;7.22;45.60
69127;BME280;56688;50.234;19.292;2023-03-12T10:26:09;98193.11;;;7.40;43.23
69127;BME280;56688;50.234;19.292;2023-03-12T10:28:42;98186.27;;;7.46;43.02
69127;BME280;56688;50.234;19.292;2023-03-12T10:31:18;98188.54;;;7.43;43.51
69127;BME280;56688;50.234;19.292;2023-03-12T10:33:51;98186.43;;;7.34;43.72
69127;BME280;56688;50.234;19.292;2023-03-12T10:36:24;98184.52;;;7.27;43.68
69127;BME280;56688;50.234;19.292;2023-03-12T10:38:51;98191.61;;;7.12;43.64
69127;BME280;56688;50.234;19.292;2023-03-12T10:41:22;98189.00;;;6.88;43.96
69127;BME280;56688;50.234;19.292;2023-03-12T10:43:49;98192.09;;;6.78;44.01
69127;BME280;56688;50.234;19.292;2023-03-12T10:49:24;98188.48;;;6.99;45.40
69127;BME280;56688;50.234;19.292;2023-03-12T10:51:53;98196.25;;;7.01;44.69
69127;BME280;56688;50.234;19.292;2023-03-12T10:56:56;98190.03;;;7.09;45.98
69127;BME280;56688;50.234;19.292;2023-03-12T10:59:27;98187.02;;;7.21;45.45
69127;BME280;56688;50.234;19.292;2023-03-12T11:01:55;98188.05;;;7.32;45.36
69127;BME280;56688;50.234;19.292;2023-03-12T11:04:26;98190.04;;;7.38;44.93
69127;BME280;56688;50.234;19.292;2023-03-12T11:09:37;98189.20;;;7.16;45.71
69127;BME280;56688;50.234;19.292;2023-03-12T11:12:22;98188.14;;;7.33;45.47
69127;BME280;56688;50.234;19.292;2023-03-12T11:14:50;98192.48;;;7.57;46.18
69127;BME280;56688;50.234;19.292;2023-03-12T11:17:21;98188.42;;;7.66;44.60
69127;BME280;56688;50.234;19.292;2023-03-12T11:19:48;98194.56;;;7.53;43.93
69127;BME280;56688;50.234;19.292;2023-03-12T11:22:27;98196.96;;;7.37;44.11
69127;BME280;56688;50.234;19.292;2023-03-12T11:24:57;98192.34;;;7.22;44.45
69127;BME280;56688;50.234;19.292;2023-03-12T11:27:35;98193.74;;;7.01;44.99
69127;BME280;56688;50.234;19.292;2023-03-12T11:30:05;98198.69;;;6.87;46.32
69127;BME280;56688;50.234;19.292;2023-03-12T11:32:43;98194.55;;;6.92;45.08
69127;BME280;56688;50.234;19.292;2023-03-12T11:35:13;98194.77;;;7.00;44.83
69127;BME280;56688;50.234;19.292;2023-03-12T11:46:19;98203.55;;;6.89;45.99
69127;BME280;56688;50.234;19.292;2023-03-12T11:48:58;98187.06;;;7.59;45.84
69127;BME280;56688;50.234;19.292;2023-03-12T11:54:06;98175.25;;;8.15;41.73
69127;BME280;56688;50.234;19.292;2023-03-12T11:56:47;98178.67;;;7.84;41.89
69127;BME280;56688;50.234;19.292;2023-03-12T12:08:09;98180.02;;;8.98;41.73
69127;BME280;56688;50.234;19.292;2023-03-12T12:32:16;98173.23;;;9.87;37.75
69127;BME280;56688;50.234;19.292;2023-03-12T12:34:55;98178.80;;;9.81;37.83
69127;BME280;56688;50.234;19.292;2023-03-12T12:40:28;98191.09;;;9.61;38.07
69127;BME280;56688;50.234;19.292;2023-03-12T12:43:05;98194.60;;;9.02;37.91
69127;BME280;56688;50.234;19.292;2023-03-12T12:45:37;98188.54;;;8.88;38.25
69127;BME280;56688;50.234;19.292;2023-03-12T12:48:15;98190.56;;;8.89;38.71
69127;BME280;56688;50.234;19.292;2023-03-12T12:50:44;98179.98;;;9.40;38.25
69127;BME280;56688;50.234;19.292;2023-03-12T12:53:20;98179.41;;;10.23;38.17
69127;BME280;56688;50.234;19.292;2023-03-12T12:55:57;98183.57;;;10.74;36.37
69127;BME280;56688;50.234;19.292;2023-03-12T13:00:58;98180.55;;;10.26;35.99
69127;BME280;56688;50.234;19.292;2023-03-12T13:03:26;98179.14;;;9.77;35.87
69127;BME280;56688;50.234;19.292;2023-03-12T13:05:57;98182.58;;;9.41;36.94
69127;BME280;56688;50.234;19.292;2023-03-12T13:13:49;98189.03;;;8.78;38.89
69127;BME280;56688;50.234;19.292;2023-03-12T13:21:49;98180.08;;;9.12;37.13
69127;BME280;56688;50.234;19.292;2023-03-12T13:24:25;98182.20;;;8.98;37.39
69127;BME280;56688;50.234;19.292;2023-03-12T13:29:41;98179.52;;;8.84;38.23
69127;BME280;56688;50.234;19.292;2023-03-12T13:43:08;98192.94;;;8.42;38.12
69127;BME280;56688;50.234;19.292;2023-03-12T13:48:23;98189.61;;;8.49;39.14
69127;BME280;56688;50.234;19.292;2023-03-12T13:50:54;98189.27;;;8.66;39.14
69127;BME280;56688;50.234;19.292;2023-03-12T13:53:26;98186.23;;;8.66;38.40
69127;BME280;56688;50.234;19.292;2023-03-12T13:56:18;98187.66;;;8.48;38.90
69127;BME280;56688;50.234;19.292;2023-03-12T13:59:02;98187.09;;;8.45;38.92
69127;BME280;56688;50.234;19.292;2023-03-12T14:01:36;98186.88;;;8.44;39.37
69127;BME280;56688;50.234;19.292;2023-03-12T14:04:18;98193.61;;;8.54;40.06
69127;BME280;56688;50.234;19.292;2023-03-12T14:09:45;98193.45;;;8.51;39.32
69127;BME280;56688;50.234;19.292;2023-03-12T14:12:22;98199.83;;;8.40;39.86
69127;BME280;56688;50.234;19.292;2023-03-12T14:17:35;98201.84;;;7.94;39.62
69127;BME280;56688;50.234;19.292;2023-03-12T14:22:42;98205.40;;;7.70;40.18
69127;BME280;56688;50.234;19.292;2023-03-12T14:25:21;98204.19;;;7.73;39.15
69127;BME280;56688;50.234;19.292;2023-03-12T14:27:51;98200.36;;;7.79;39.21
69127;BME280;56688;50.234;19.292;2023-03-12T14:32:46;98216.22;;;7.58;40.27
69127;BME280;56688;50.234;19.292;2023-03-12T14:35:19;98210.48;;;7.45;40.65
69127;BME280;56688;50.234;19.292;2023-03-12T14:38:05;98212.23;;;7.30;40.24
69127;BME280;56688;50.234;19.292;2023-03-12T14:40:35;98208.44;;;7.13;41.20
69127;BME280;56688;50.234;19.292;2023-03-12T14:43:21;98212.40;;;6.97;41.41
69127;BME280;56688;50.234;19.292;2023-03-12T14:45:50;98216.30;;;6.85;41.82
69127;BME280;56688;50.234;19.292;2023-03-12T14:48:22;98221.18;;;6.80;42.72
69127;BME280;56688;50.234;19.292;2023-03-12T14:50:49;98226.13;;;6.73;42.95
69127;BME280;56688;50.234;19.292;2023-03-12T14:53:28;98230.22;;;6.66;42.15
69127;BME280;56688;50.234;19.292;2023-03-12T14:56:11;98226.54;;;6.53;42.08
69127;BME280;56688;50.234;19.292;2023-03-12T14:58:45;98225.26;;;6.45;41.75
69127;BME280;56688;50.234;19.292;2023-03-12T15:01:17;98226.50;;;6.39;42.52